Time;durP1;ratioP1;P1;durP2;ratioP2;P2;SDS_P1;SDS_P2;PMS_P1;PMS_P2;Temp;Humidity;BMP_temperature;BMP_pressure;BME280_temperature;BME280_humidity;BME280_pressure;Samples;Min_cycle;Max_cycle;Signal;HPM_P1;HPM_P2
2023/07/03 00:04:35;;;;;;;14.63;5.80;;;;;;;;;;10429915;28;20103;-74
2023/07/03 00:09:38;;;;;;;15.13;6.20;;;;;;;;;;10437794;28;20080;-74
2023/07/03 00:14:42;;;;;;;15.38;6.03;;;;;;;;;;10414433;28;20494;-74
2023/07/03 00:19:45;;;;;;;15.57;6.35;;;;;;;;;;10430721;28;20041;-74
2023/07/03 00:24:48;;;;;;;14.70;6.50;;;;;;;;;;10430219;28;20113;-74
2023/07/03 00:29:52;;;;;;;15.73;6.27;;;;;;;;;;10430840;28;20045;-74
2023/07/03 00:34:54;;;;;;;17.83;6.72;;;;;;;;;;10433194;28;20285;-74
2023/07/03 00:39:57;;;;;;;14.97;6.53;;;;;;;;;;10438598;28;20106;-74
2023/07/03 00:45:01;;;;;;;14.33;6.80;;;;;;;;;;10434220;28;20044;-74
2023/07/03 00:50:04;;;;;;;18.02;7.05;;;;;;;;;;10440695;28;20048;-74
2023/07/03 00:55:07;;;;;;;;;;;;;;;;;;10419978;28;20061;-74
2023/07/03 01:00:13;;;;;;;19.17;7.25;;;;;;;;;;10431911;28;19929;-74
2023/07/03 01:05:17;;;;;;;22.65;7.38;;;;;;;;;;10432698;28;20044;-73
2023/07/03 01:10:22;;;;;;;17.55;6.78;;;;;;;;;;10435361;28;20076;-74
2023/07/03 01:15:28;;;;;;;17.35;6.70;;;;;;;;;;10430789;28;20544;-73
2023/07/03 01:20:33;;;;;;;18.30;7.40;;;;;;;;;;10435604;28;20064;-73
2023/07/03 01:25:39;;;;;;;18.13;7.15;;;;;;;;;;10431192;28;20041;-75
2023/07/03 01:30:43;;;;;;;14.25;6.38;;;;;;;;;;10408920;28;20081;-73
2023/07/03 01:35:46;;;;;;;;;;;;;;;;;;10426669;28;20144;-75
2023/07/03 01:40:51;;;;;;;18.95;7.55;;;;;;;;;;10424867;28;20043;-74
2023/07/03 01:45:54;;;;;;;20.65;7.30;;;;;;;;;;10426761;28;20045;-74
2023/07/03 01:50:57;;;;;;;17.57;6.77;;;;;;;;;;10410206;28;20760;-73
2023/07/03 01:56:05;;;;;;;20.10;8.10;;;;;;;;;;10425640;28;20040;-74
2023/07/03 02:01:10;;;;;;;21.20;7.18;;;;;;;;;;10432685;28;20434;-72
2023/07/03 02:06:14;;;;;;;20.15;8.18;;;;;;;;;;10434749;28;20053;-73
2023/07/03 02:11:20;;;;;;;21.02;7.97;;;;;;;;;;10432649;28;20052;-73
2023/07/03 02:16:23;;;;;;;20.70;7.65;;;;;;;;;;10431124;28;20171;-73
2023/07/03 02:21:27;;;;;;;20.52;7.95;;;;;;;;;;10427816;28;20045;-73
2023/07/03 02:26:32;;;;;;;18.65;7.40;;;;;;;;;;10428640;28;20160;-74
2023/07/03 02:31:35;;;;;;;17.05;7.28;;;;;;;;;;10426830;28;20040;-74
2023/07/03 02:36:38;;;;;;;19.65;7.38;;;;;;;;;;10425425;28;20081;-73
2023/07/03 02:41:42;;;;;;;23.98;7.68;;;;;;;;;;10433879;28;20049;-73
2023/07/03 02:46:47;;;;;;;19.52;7.35;;;;;;;;;;10432150;28;20132;-73
2023/07/03 02:51:49;;;;;;;21.45;8.23;;;;;;;;;;10431071;28;20047;-75
2023/07/03 02:56:53;;;;;;;17.50;7.03;;;;;;;;;;10432631;28;20037;-74
2023/07/03 03:01:56;;;;;;;20.10;6.75;;;;;;;;;;10426864;28;20045;-74
2023/07/03 03:06:59;;;;;;;20.00;7.87;;;;;;;;;;10435466;28;20084;-75
2023/07/03 03:12:03;;;;;;;20.42;7.47;;;;;;;;;;10435396;28;20045;-75
2023/07/03 03:17:06;;;;;;;21.35;8.00;;;;;;;;;;10431516;28;20095;-75
2023/07/03 03:22:09;;;;;;;24.07;7.63;;;;;;;;;;10429043;28;20041;-73
2023/07/03 03:27:13;;;;;;;22.93;7.40;;;;;;;;;;10433114;28;20695;-74
2023/07/03 03:32:18;;;;;;;20.52;7.18;;;;;;;;;;10435528;28;20045;-74
2023/07/03 03:37:21;;;;;;;21.63;7.32;;;;;;;;;;10430744;28;20147;-74
2023/07/03 03:42:25;;;;;;;16.60;5.85;;;;;;;;;;10440136;28;20116;-74
2023/07/03 03:47:28;;;;;;;16.60;6.30;;;;;;;;;;10430528;28;20040;-73
2023/07/03 03:52:31;;;;;;;23.67;7.43;;;;;;;;;;10432091;28;20048;-74
2023/07/03 03:57:35;;;;;;;21.83;7.07;;;;;;;;;;10422729;28;20696;-74
2023/07/03 04:02:38;;;;;;;20.45;6.90;;;;;;;;;;10420619;28;20052;-74
2023/07/03 04:07:41;;;;;;;20.65;7.93;;;;;;;;;;10418458;28;20061;-74
2023/07/03 04:12:45;;;;;;;23.73;7.83;;;;;;;;;;10420378;28;20029;-74
2023/07/03 04:17:48;;;;;;;20.42;7.95;;;;;;;;;;10421096;28;20069;-74
2023/07/03 04:22:51;;;;;;;19.10;7.53;;;;;;;;;;10424176;28;20041;-74
2023/07/03 04:27:55;;;;;;;21.60;8.43;;;;;;;;;;10419699;28;20131;-75
2023/07/03 04:32:58;;;;;;;19.58;8.30;;;;;;;;;;10441601;28;20049;-74
2023/07/03 04:38:01;;;;;;;19.33;6.27;;;;;;;;;;10428195;28;20040;-74
2023/07/03 04:43:08;;;;;;;22.08;7.30;;;;;;;;;;10430906;28;20036;-74
2023/07/03 04:48:11;;;;;;;20.92;6.53;;;;;;;;;;10432418;28;20529;-74
2023/07/03 04:53:14;;;;;;;17.52;6.45;;;;;;;;;;10426099;28;20686;-74
2023/07/03 04:58:18;;;;;;;19.35;8.35;;;;;;;;;;10427450;28;20037;-74
2023/07/03 05:03:21;;;;;;;20.85;6.85;;;;;;;;;;10423929;28;20039;-74
2023/07/03 05:08:24;;;;;;;20.67;6.20;;;;;;;;;;10426498;28;20041;-74
2023/07/03 05:13:29;;;;;;;21.52;7.68;;;;;;;;;;10430438;28;20068;-74
2023/07/03 05:18:33;;;;;;;19.90;6.70;;;;;;;;;;10420663;28;20052;-75
2023/07/03 05:23:36;;;;;;;21.27;7.77;;;;;;;;;;10433178;28;20037;-74
2023/07/03 05:28:40;;;;;;;24.15;7.95;;;;;;;;;;10430809;28;20318;-74
2023/07/03 05:33:43;;;;;;;16.50;5.93;;;;;;;;;;10435054;28;20037;-74
2023/07/03 05:38:46;;;;;;;21.05;7.63;;;;;;;;;;10427556;28;20053;-73
2023/07/03 05:43:50;;;;;;;19.67;7.37;;;;;;;;;;10422825;28;20037;-75
2023/07/03 05:48:53;;;;;;;20.70;7.30;;;;;;;;;;10429410;28;20049;-76
2023/07/03 05:53:56;;;;;;;23.70;7.30;;;;;;;;;;10417820;28;20048;-74
2023/07/03 05:59:00;;;;;;;16.83;5.60;;;;;;;;;;10424580;28;20128;-75
2023/07/03 06:04:02;;;;;;;19.48;6.75;;;;;;;;;;10427049;28;20415;-75
2023/07/03 06:09:05;;;;;;;18.48;7.05;;;;;;;;;;10430119;28;21139;-74
2023/07/03 06:14:13;;;;;;;22.30;7.57;;;;;;;;;;10428541;28;20383;-75
2023/07/03 06:19:17;;;;;;;17.70;6.57;;;;;;;;;;10422065;28;20080;-76
2023/07/03 06:24:20;;;;;;;16.38;5.63;;;;;;;;;;10426917;28;20052;-77
2023/07/03 06:29:24;;;;;;;17.10;6.10;;;;;;;;;;10424149;28;20041;-74
2023/07/03 06:34:26;;;;;;;20.95;6.60;;;;;;;;;;10423740;28;20037;-74
2023/07/03 06:39:29;;;;;;;16.55;5.93;;;;;;;;;;10419326;28;20052;-74
2023/07/03 06:44:33;;;;;;;22.02;6.82;;;;;;;;;;10426516;28;20094;-74
2023/07/03 06:49:36;;;;;;;18.90;6.90;;;;;;;;;;10423149;28;20187;-72
2023/07/03 06:54:39;;;;;;;16.40;5.85;;;;;;;;;;10422290;28;20453;-73
2023/07/03 06:59:44;;;;;;;16.75;7.00;;;;;;;;;;10424672;28;20167;-72
2023/07/03 07:04:46;;;;;;;14.70;5.95;;;;;;;;;;10427094;28;20076;-74
2023/07/03 07:09:50;;;;;;;12.07;4.88;;;;;;;;;;10419732;28;20052;-74
2023/07/03 07:14:52;;;;;;;;;;;;;;;;;;10421465;28;20126;-73
2023/07/03 07:19:58;;;;;;;15.30;5.80;;;;;;;;;;10419004;28;19924;-72
2023/07/03 07:25:00;;;;;;;20.40;7.25;;;;;;;;;;10419881;28;20040;-75
2023/07/03 07:30:03;;;;;;;17.90;6.88;;;;;;;;;;10418309;28;20122;-73
2023/07/03 07:35:06;;;;;;;;;;;;;;;;;;10420700;28;20531;-73
2023/07/03 07:40:11;;;;;;;21.80;7.73;;;;;;;;;;10427007;28;20029;-74
2023/07/03 07:45:14;;;;;;;16.20;6.97;;;;;;;;;;10426138;28;20136;-74
2023/07/03 07:50:17;;;;;;;23.40;7.90;;;;;;;;;;10424904;28;20118;-74
2023/07/03 07:55:22;;;;;;;14.70;4.82;;;;;;;;;;10427851;28;20044;-73
2023/07/03 08:00:25;;;;;;;18.92;7.55;;;;;;;;;;10419155;28;21944;-74
2023/07/03 08:05:28;;;;;;;15.88;7.20;;;;;;;;;;10413992;28;20041;-75
2023/07/03 08:10:32;;;;;;;16.30;6.65;;;;;;;;;;10427750;28;20091;-72
2023/07/03 08:15:35;;;;;;;15.75;7.78;;;;;;;;;;10424502;28;20048;-74
2023/07/03 08:20:38;;;;;;;17.15;7.38;;;;;;;;;;10427437;28;20041;-73
2023/07/03 08:25:42;;;;;;;16.85;7.88;;;;;;;;;;10426336;28;20045;-73
2023/07/03 08:30:44;;;;;;;10.35;4.90;;;;;;;;;;10429145;28;20155;-74
2023/07/03 08:35:47;;;;;;;9.80;4.78;;;;;;;;;;10430367;28;20463;-74
2023/07/03 08:41:01;;;;;;;11.57;5.05;;;;;;;;;;10427485;28;20045;-74
2023/07/03 08:46:06;;;;;;;14.10;5.97;;;;;;;;;;10432501;28;20061;-73
2023/07/03 08:51:14;;;;;;;19.08;6.35;;;;;;;;;;10431987;28;20269;-76
2023/07/03 08:56:20;;;;;;;12.95;5.05;;;;;;;;;;10429631;28;20032;-74
2023/07/03 09:01:28;;;;;;;12.18;5.68;;;;;;;;;;10426908;28;20055;-75
2023/07/03 09:06:36;;;;;;;12.70;4.80;;;;;;;;;;10422680;28;20169;-75
2023/07/03 09:11:43;;;;;;;12.35;5.28;;;;;;;;;;10424758;28;20071;-75
2023/07/03 09:16:47;;;;;;;10.25;4.15;;;;;;;;;;10426029;28;20037;-74
2023/07/03 09:21:52;;;;;;;12.23;4.00;;;;;;;;;;10431780;28;20180;-74
2023/07/03 09:26:58;;;;;;;11.77;4.80;;;;;;;;;;10431382;28;20048;-75
2023/07/03 09:32:02;;;;;;;15.48;3.67;;;;;;;;;;10434697;28;20114;-75
2023/07/03 09:37:06;;;;;;;9.50;3.60;;;;;;;;;;10429946;28;20041;-76
2023/07/03 09:42:11;;;;;;;10.20;4.25;;;;;;;;;;10427200;28;20037;-74
2023/07/03 09:47:19;;;;;;;9.95;5.20;;;;;;;;;;10430084;28;20528;-75
2023/07/03 09:52:23;;;;;;;6.93;3.50;;;;;;;;;;10422079;28;20080;-74
2023/07/03 09:57:29;;;;;;;8.20;3.60;;;;;;;;;;10426349;28;20045;-75
2023/07/03 10:02:31;;;;;;;10.20;4.43;;;;;;;;;;10419357;28;20131;-72
2023/07/03 10:07:40;;;;;;;10.30;5.28;;;;;;;;;;10421270;28;20037;-74
2023/07/03 10:12:46;;;;;;;6.38;3.55;;;;;;;;;;10423030;28;20072;-74
2023/07/03 10:17:53;;;;;;;8.55;4.32;;;;;;;;;;10427556;28;20049;-74
2023/07/03 10:22:58;;;;;;;11.10;5.55;;;;;;;;;;10430128;28;20052;-74
2023/07/03 10:28:06;;;;;;;8.02;4.43;;;;;;;;;;10427040;28;20072;-75
2023/07/03 10:33:11;;;;;;;8.15;4.00;;;;;;;;;;10423073;28;20045;-75
2023/07/03 10:38:17;;;;;;;10.73;5.85;;;;;;;;;;10422860;28;20076;-75
2023/07/03 10:43:21;;;;;;;8.73;4.45;;;;;;;;;;10423045;28;20051;-75
2023/07/03 10:48:26;;;;;;;11.02;4.30;;;;;;;;;;10419093;28;20530;-74
2023/07/03 10:53:34;;;;;;;10.82;5.32;;;;;;;;;;10419254;28;20043;-73
2023/07/03 10:58:43;;;;;;;8.75;4.20;;;;;;;;;;10417611;28;20039;-74
2023/07/03 11:03:50;;;;;;;15.05;5.22;;;;;;;;;;10426828;28;20837;-75
2023/07/03 11:09:17;;;;;;;9.10;4.35;;;;;;;;;;10423944;28;20032;-74
2023/07/03 11:14:23;;;;;;;9.65;4.70;;;;;;;;;;10425284;28;20102;-74
2023/07/03 11:19:31;;;;;;;11.77;4.88;;;;;;;;;;10423623;28;20060;-74
2023/07/03 11:24:41;;;;;;;11.45;4.43;;;;;;;;;;10423500;28;20159;-73
2023/07/03 11:29:45;;;;;;;10.75;4.32;;;;;;;;;;10423321;28;20053;-74
2023/07/03 11:34:48;;;;;;;11.88;4.25;;;;;;;;;;10418596;28;20045;-74
2023/07/03 11:39:54;;;;;;;9.93;4.25;;;;;;;;;;10428416;28;20187;-74
2023/07/03 11:45:00;;;;;;;12.65;4.38;;;;;;;;;;10424191;28;20127;-74
2023/07/03 11:50:05;;;;;;;11.32;5.40;;;;;;;;;;10423393;28;20506;-73
2023/07/03 11:55:08;;;;;;;9.50;5.15;;;;;;;;;;10430503;28;20151;-76
2023/07/03 12:00:22;;;;;;;8.27;3.40;;;;;;;;;;10428289;28;20056;-76
2023/07/03 12:05:43;;;;;;;11.40;4.75;;;;;;;;;;10432838;28;20096;-75
2023/07/03 12:10:57;;;;;;;13.05;4.80;;;;;;;;;;10430338;28;20046;-75
2023/07/03 12:16:03;;;;;;;10.00;4.32;;;;;;;;;;10429934;28;20098;-74
2023/07/03 12:21:06;;;;;;;9.00;4.78;;;;;;;;;;10424007;28;20200;-74
2023/07/03 12:26:09;;;;;;;11.43;5.00;;;;;;;;;;10428987;28;20037;-75
2023/07/03 12:31:16;;;;;;;9.25;4.50;;;;;;;;;;10427271;28;20139;-75
2023/07/03 12:36:23;;;;;;;9.27;4.25;;;;;;;;;;10424260;28;20064;-75
2023/07/03 12:41:26;;;;;;;11.35;5.05;;;;;;;;;;10429287;28;20053;-73
2023/07/03 12:46:32;;;;;;;9.85;4.22;;;;;;;;;;10428490;28;20071;-74
2023/07/03 12:51:39;;;;;;;11.30;4.05;;;;;;;;;;10424041;28;20718;-74
2023/07/03 12:56:42;;;;;;;10.25;4.93;;;;;;;;;;10428731;28;20497;-73
2023/07/03 13:01:49;;;;;;;9.25;4.50;;;;;;;;;;10428704;28;20158;-75
2023/07/03 13:06:52;;;;;;;10.07;5.38;;;;;;;;;;10428982;28;20305;-74
2023/07/03 13:11:55;;;;;;;11.48;3.58;;;;;;;;;;10426550;28;20050;-73
2023/07/03 13:17:00;;;;;;;9.52;4.13;;;;;;;;;;10424249;28;20032;-73
2023/07/03 13:22:06;;;;;;;14.45;4.60;;;;;;;;;;10423974;28;20049;-74
2023/07/03 13:27:19;;;;;;;10.32;3.97;;;;;;;;;;10421310;28;20505;-74
2023/07/03 13:32:23;;;;;;;8.05;3.65;;;;;;;;;;10422067;28;20045;-75
2023/07/03 13:37:28;;;;;;;11.15;4.47;;;;;;;;;;10424626;28;20037;-74
2023/07/03 13:42:31;;;;;;;12.38;4.75;;;;;;;;;;10426484;28;20057;-74
2023/07/03 13:47:35;;;;;;;8.57;4.20;;;;;;;;;;10426324;28;20099;-75
2023/07/03 13:52:38;;;;;;;8.75;4.00;;;;;;;;;;10426982;28;20053;-76
2023/07/03 13:57:41;;;;;;;9.68;4.43;;;;;;;;;;10425594;28;20126;-75
2023/07/03 14:02:45;;;;;;;13.25;4.47;;;;;;;;;;10427815;28;20417;-75
2023/07/03 14:07:50;;;;;;;7.63;3.63;;;;;;;;;;10422834;28;20117;-74
2023/07/03 14:12:53;;;;;;;9.07;4.57;;;;;;;;;;10422417;28;20484;-74
2023/07/03 14:17:57;;;;;;;12.15;4.65;;;;;;;;;;10404551;28;20041;-74
2023/07/03 14:23:00;;;;;;;11.05;4.95;;;;;;;;;;10420675;28;20194;-74
2023/07/03 14:28:04;;;;;;;11.20;4.47;;;;;;;;;;10425271;28;20115;-75
2023/07/03 14:33:08;;;;;;;10.45;4.65;;;;;;;;;;10424676;28;20072;-74
2023/07/03 14:38:11;;;;;;;8.98;4.13;;;;;;;;;;10425092;28;20842;-75
2023/07/03 14:43:14;;;;;;;9.73;4.30;;;;;;;;;;10427649;28;20051;-74
2023/07/03 14:48:18;;;;;;;10.38;4.95;;;;;;;;;;10424487;28;20048;-73
2023/07/03 14:53:21;;;;;;;11.80;4.53;;;;;;;;;;10425763;28;20140;-74
2023/07/03 14:58:24;;;;;;;12.52;4.55;;;;;;;;;;10425878;28;20595;-73
2023/07/03 15:03:28;;;;;;;11.00;4.72;;;;;;;;;;10423878;28;20738;-74
2023/07/03 15:08:31;;;;;;;12.50;4.80;;;;;;;;;;10423174;28;20049;-75
2023/07/03 15:13:35;;;;;;;10.75;4.15;;;;;;;;;;10424399;28;20111;-75
2023/07/03 15:18:40;;;;;;;8.68;4.07;;;;;;;;;;10422590;28;20211;-75
2023/07/03 15:23:44;;;;;;;10.10;4.20;;;;;;;;;;10423001;28;20128;-75
2023/07/03 15:28:47;;;;;;;11.38;4.60;;;;;;;;;;10425445;28;20106;-73
2023/07/03 15:33:54;;;;;;;10.13;3.72;;;;;;;;;;10429601;28;20076;-74
2023/07/03 15:38:58;;;;;;;12.48;4.82;;;;;;;;;;10425044;28;20383;-73
2023/07/03 15:44:01;;;;;;;11.15;4.50;;;;;;;;;;10428048;28;20041;-75
2023/07/03 15:49:05;;;;;;;13.00;3.47;;;;;;;;;;10423499;28;20045;-74
2023/07/03 15:54:08;;;;;;;10.05;4.53;;;;;;;;;;10422017;28;20051;-74
2023/07/03 15:59:11;;;;;;;11.02;4.45;;;;;;;;;;10420347;28;20120;-75
2023/07/03 16:04:16;;;;;;;11.02;4.78;;;;;;;;;;10422673;28;20044;-73
2023/07/03 16:09:19;;;;;;;11.93;4.90;;;;;;;;;;10421319;28;20037;-74
2023/07/03 16:14:21;;;;;;;;;;;;;;;;;;10424566;28;20502;-74
2023/07/03 16:19:26;;;;;;;8.20;4.30;;;;;;;;;;10427350;28;19935;-74
2023/07/03 16:24:29;;;;;;;9.63;4.13;;;;;;;;;;10431609;28;20283;-74
2023/07/03 16:29:32;;;;;;;12.27;4.00;;;;;;;;;;10429908;28;20127;-74
2023/07/03 16:34:37;;;;;;;10.60;3.97;;;;;;;;;;10438742;28;20041;-75
2023/07/03 16:39:40;;;;;;;8.00;3.88;;;;;;;;;;10430287;28;20108;-77
2023/07/03 16:44:44;;;;;;;10.60;4.38;;;;;;;;;;10429083;28;20047;-75
2023/07/03 16:49:48;;;;;;;12.48;5.57;;;;;;;;;;10434582;28;20083;-76
2023/07/03 16:54:51;;;;;;;10.52;4.68;;;;;;;;;;10428525;28;20163;-74
2023/07/03 16:59:54;;;;;;;12.00;4.50;;;;;;;;;;10430242;28;20041;-75
2023/07/03 17:05:01;;;;;;;11.00;4.18;;;;;;;;;;10429196;28;20037;-74
2023/07/03 17:10:04;;;;;;;12.35;4.25;;;;;;;;;;10434529;28;20049;-74
2023/07/03 17:15:08;;;;;;;11.73;4.10;;;;;;;;;;10430960;28;20110;-75
2023/07/03 17:20:12;;;;;;;12.65;5.28;;;;;;;;;;10432768;28;20064;-75
2023/07/03 17:25:15;;;;;;;13.43;4.57;;;;;;;;;;10438916;28;20055;-76
2023/07/03 17:30:18;;;;;;;13.52;4.63;;;;;;;;;;10436801;28;20048;-75
2023/07/03 17:35:23;;;;;;;11.32;4.13;;;;;;;;;;10428141;28;20033;-76
2023/07/03 17:40:26;;;;;;;13.63;4.20;;;;;;;;;;10428669;28;20049;-76
2023/07/03 17:45:31;;;;;;;10.38;4.28;;;;;;;;;;10431034;28;20550;-74
2023/07/03 17:50:35;;;;;;;10.75;4.30;;;;;;;;;;10434585;28;20431;-74
2023/07/03 17:55:40;;;;;;;11.00;4.43;;;;;;;;;;10449427;28;20438;-74
2023/07/03 18:00:42;;;;;;;11.20;4.78;;;;;;;;;;10437101;28;20044;-74
2023/07/03 18:05:45;;;;;;;;;;;;;;;;;;10432237;28;20114;-74
2023/07/03 18:10:50;;;;;;;10.13;3.55;;;;;;;;;;10433348;28;19968;-74
2023/07/03 18:15:53;;;;;;;12.73;4.05;;;;;;;;;;10436697;28;20060;-76
2023/07/03 18:20:56;;;;;;;12.38;4.15;;;;;;;;;;10434266;28;20479;-76
2023/07/03 18:26:00;;;;;;;13.02;4.65;;;;;;;;;;10429595;28;20160;-74
2023/07/03 18:31:04;;;;;;;10.88;4.03;;;;;;;;;;10428301;28;20545;-75
2023/07/03 18:36:07;;;;;;;12.00;4.43;;;;;;;;;;10422801;28;20059;-75
2023/07/03 18:41:11;;;;;;;9.98;4.05;;;;;;;;;;10426612;28;20052;-74
2023/07/03 18:46:15;;;;;;;14.80;5.47;;;;;;;;;;10427391;28;20049;-74
2023/07/03 18:51:21;;;;;;;16.33;6.78;;;;;;;;;;10427440;28;20179;-74
2023/07/03 18:56:25;;;;;;;11.48;4.05;;;;;;;;;;10433195;28;20117;-75
2023/07/03 19:01:30;;;;;;;12.00;3.90;;;;;;;;;;10429318;28;20048;-76
2023/07/03 19:06:33;;;;;;;12.77;4.63;;;;;;;;;;10430736;28;20042;-75
2023/07/03 19:11:42;;;;;;;9.52;3.50;;;;;;;;;;10430285;28;20457;-76
2023/07/03 19:16:45;;;;;;;10.85;5.13;;;;;;;;;;10425420;28;20057;-73
2023/07/03 19:21:47;;;;;;;14.23;4.68;;;;;;;;;;10423424;28;20044;-75
2023/07/03 19:26:51;;;;;;;13.80;4.75;;;;;;;;;;10415050;28;20314;-76
2023/07/03 19:31:54;;;;;;;14.05;4.55;;;;;;;;;;10423571;28;20469;-76
2023/07/03 19:36:59;;;;;;;9.57;4.05;;;;;;;;;;10433428;28;20065;-76
2023/07/03 19:42:03;;;;;;;9.90;4.32;;;;;;;;;;10407839;28;20135;-75
2023/07/03 19:47:06;;;;;;;10.60;3.88;;;;;;;;;;10430010;28;20040;-74
2023/07/03 19:52:10;;;;;;;11.13;4.53;;;;;;;;;;10432155;28;20733;-74
2023/07/03 19:57:16;;;;;;;10.18;3.83;;;;;;;;;;10429822;28;20475;-75
2023/07/03 20:02:18;;;;;;;10.93;4.55;;;;;;;;;;10442124;28;20279;-75
2023/07/03 20:07:21;;;;;;;10.63;4.35;;;;;;;;;;10432050;28;20043;-76
2023/07/03 20:12:26;;;;;;;11.95;4.25;;;;;;;;;;10414467;28;20045;-75
2023/07/03 20:17:30;;;;;;;12.07;4.47;;;;;;;;;;10409862;28;20443;-77
2023/07/03 20:22:35;;;;;;;10.57;4.88;;;;;;;;;;10433290;28;20049;-75
2023/07/03 20:27:39;;;;;;;10.60;4.55;;;;;;;;;;10440969;28;20610;-74
2023/07/03 20:32:43;;;;;;;10.10;4.03;;;;;;;;;;10432978;28;20075;-75
2023/07/03 20:37:46;;;;;;;8.32;3.75;;;;;;;;;;10444579;28;20458;-74
2023/07/03 20:42:54;;;;;;;13.63;4.93;;;;;;;;;;10445778;28;20055;-75
2023/07/03 20:47:57;;;;;;;12.48;4.70;;;;;;;;;;10438818;28;20037;-74
2023/07/03 20:53:09;;;;;;;16.25;5.25;;;;;;;;;;10428874;28;20121;-74
2023/07/03 20:58:13;;;;;;;16.77;4.32;;;;;;;;;;10440105;28;20108;-74
2023/07/03 21:03:17;;;;;;;12.13;4.25;;;;;;;;;;10432320;28;20103;-75
2023/07/03 21:08:20;;;;;;;13.05;4.22;;;;;;;;;;10428019;28;20092;-75
2023/07/03 21:13:24;;;;;;;13.40;4.57;;;;;;;;;;10429300;28;20053;-75
2023/07/03 21:18:27;;;;;;;10.85;3.53;;;;;;;;;;10416519;28;20132;-76
2023/07/03 21:23:30;;;;;;;;;;;;;;;;;;10431512;28;20430;-75
2023/07/03 21:28:34;;;;;;;11.02;3.78;;;;;;;;;;10414501;28;19924;-75
2023/07/03 21:33:37;;;;;;;11.45;4.93;;;;;;;;;;10436117;28;20041;-75
2023/07/03 21:38:41;;;;;;;14.75;4.70;;;;;;;;;;10440864;28;20695;-75
2023/07/03 21:43:43;;;;;;;;;;;;;;;;;;10443750;28;20052;-75
2023/07/03 21:48:48;;;;;;;10.97;4.17;;;;;;;;;;10433212;28;19925;-74
2023/07/03 21:53:53;;;;;;;11.02;3.92;;;;;;;;;;10431569;28;20078;-74
2023/07/03 21:58:57;;;;;;;9.50;4.28;;;;;;;;;;10427465;28;20594;-75
2023/07/03 22:04:03;;;;;;;9.98;4.03;;;;;;;;;;10430721;28;20567;-75
2023/07/03 22:09:06;;;;;;;12.65;4.05;;;;;;;;;;10429574;28;20745;-75
2023/07/03 22:14:09;;;;;;;16.05;4.53;;;;;;;;;;10428397;28;20057;-75
2023/07/03 22:19:14;;;;;;;10.45;4.32;;;;;;;;;;10436048;28;20029;-78
2023/07/03 22:24:17;;;;;;;11.18;4.22;;;;;;;;;;10434145;28;20043;-75
2023/07/03 22:29:20;;;;;;;10.20;4.15;;;;;;;;;;10429908;28;20029;-74
2023/07/03 22:34:24;;;;;;;9.52;3.80;;;;;;;;;;10430574;28;20576;-75
2023/07/03 22:39:27;;;;;;;8.63;4.07;;;;;;;;;;10427453;28;20155;-74
2023/07/03 22:44:30;;;;;;;8.27;4.05;;;;;;;;;;10428005;28;20040;-74
2023/07/03 22:49:35;;;;;;;16.13;4.30;;;;;;;;;;10425161;28;20490;-74
2023/07/03 22:54:39;;;;;;;13.60;4.72;;;;;;;;;;10429297;28;20042;-73
2023/07/03 22:59:43;;;;;;;8.13;3.70;;;;;;;;;;10407586;28;20036;-74
2023/07/03 23:04:47;;;;;;;11.45;3.78;;;;;;;;;;10426829;28;20055;-75
2023/07/03 23:09:50;;;;;;;9.07;3.35;;;;;;;;;;10433645;28;20069;-74
2023/07/03 23:14:53;;;;;;;12.48;4.28;;;;;;;;;;10440496;28;20137;-73
2023/07/03 23:19:57;;;;;;;10.18;3.65;;;;;;;;;;10429673;28;20624;-74
2023/07/03 23:25:00;;;;;;;10.35;4.30;;;;;;;;;;10430468;28;20138;-75
2023/07/03 23:30:04;;;;;;;9.23;2.67;;;;;;;;;;10428785;28;20176;-75
2023/07/03 23:35:10;;;;;;;12.98;4.50;;;;;;;;;;10412163;28;20052;-74
2023/07/03 23:40:14;;;;;;;9.98;3.80;;;;;;;;;;10430714;28;20025;-75
2023/07/03 23:45:19;;;;;;;;;;;;;;;;;;10425373;28;20474;-74
2023/07/03 23:50:23;;;;;;;17.98;4.90;;;;;;;;;;10429309;28;19975;-74
2023/07/03 23:55:26;;;;;;;8.75;3.15;;;;;;;;;;10430067;28;20140;-74
